Time;durP1;ratioP1;P1;durP2;ratioP2;P2;SDS_P1;SDS_P2;PMS_P1;PMS_P2;Temp;Humidity;BMP_temperature;BMP_pressure;BME280_temperature;BME280_humidity;BME280_pressure;Samples;Min_cycle;Max_cycle;Signal;HPM_P1;HPM_P2
2022/10/21 00:02:16;;;;;;;9.60;5.20;;;13.90;99.90;;;;;;4989603;28;20030;-77
2022/10/21 00:04:42;;;;;;;7.32;4.60;;;13.90;99.90;;;;;;4990046;28;20041;-76
2022/10/21 00:07:08;;;;;;;7.10;4.70;;;13.90;99.90;;;;;;4988252;28;20034;-78
2022/10/21 00:09:33;;;;;;;8.20;5.38;;;13.80;99.90;;;;;;4989668;28;20555;-78
2022/10/21 00:11:59;;;;;;;16.40;5.63;;;13.80;99.90;;;;;;4989561;28;20093;-77
2022/10/21 00:14:24;;;;;;;12.13;5.40;;;13.80;99.90;;;;;;4989827;28;20030;-78
2022/10/21 00:16:50;;;;;;;10.77;5.47;;;13.80;99.90;;;;;;4989702;28;20026;-77
2022/10/21 00:19:16;;;;;;;10.50;5.53;;;13.80;99.90;;;;;;4989294;28;20177;-77
2022/10/21 00:21:41;;;;;;;12.60;4.45;;;13.80;99.90;;;;;;4989208;28;20039;-77
2022/10/21 00:24:08;;;;;;;6.70;4.43;;;13.80;99.90;;;;;;4988091;28;20034;-77
2022/10/21 00:26:33;;;;;;;11.43;5.47;;;13.80;99.90;;;;;;4989011;28;20027;-78
2022/10/21 00:28:59;;;;;;;10.15;5.15;;;13.80;99.90;;;;;;4987703;28;20035;-77
2022/10/21 00:31:26;;;;;;;11.32;5.07;;;13.80;99.90;;;;;;4987609;28;20435;-77
2022/10/21 00:33:52;;;;;;;8.38;5.05;;;13.80;99.90;;;;;;4987352;28;20068;-78
2022/10/21 00:36:18;;;;;;;11.38;5.50;;;13.80;99.90;;;;;;4987929;28;20062;-77
2022/10/21 00:38:46;;;;;;;8.13;4.00;;;13.80;99.90;;;;;;4988367;28;20030;-76
2022/10/21 00:41:13;;;;;;;7.85;4.78;;;13.80;99.90;;;;;;4988904;28;20057;-77
2022/10/21 00:44:06;;;;;;;11.60;5.43;;;13.80;99.90;;;;;;4988342;28;20062;-78
2022/10/21 00:46:37;;;;;;;11.48;4.82;;;13.70;99.90;;;;;;4988183;28;20093;-77
2022/10/21 00:49:15;;;;;;;8.60;4.35;;;13.70;99.90;;;;;;4988498;28;20064;-77
2022/10/21 00:51:44;;;;;;;11.50;4.63;;;13.70;99.90;;;;;;4988599;28;20026;-77
2022/10/21 00:54:10;;;;;;;7.70;5.18;;;13.70;99.90;;;;;;4983846;28;20088;-77
2022/10/21 00:56:39;;;;;;;15.90;5.35;;;13.70;99.90;;;;;;4983365;28;20046;-77
2022/10/21 00:59:05;;;;;;;11.10;5.65;;;13.70;99.90;;;;;;4984803;28;20037;-77
2022/10/21 01:01:31;;;;;;;7.55;5.93;;;13.70;99.90;;;;;;4985592;28;20065;-78
2022/10/21 01:03:57;;;;;;;20.02;4.88;;;13.70;99.90;;;;;;4986777;28;20514;-77
2022/10/21 01:06:25;;;;;;;12.85;6.10;;;13.80;99.90;;;;;;4986630;28;20535;-76
2022/10/21 01:08:53;;;;;;;10.07;3.38;;;13.70;99.90;;;;;;4986946;28;20037;-76
2022/10/21 01:11:21;;;;;;;9.35;4.47;;;13.70;99.90;;;;;;4986535;28;20018;-77
2022/10/21 01:14:14;;;;;;;7.63;4.15;;;13.70;99.90;;;;;;4985996;28;20497;-77
2022/10/21 01:16:55;;;;;;;10.13;5.68;;;13.80;99.90;;;;;;4969460;28;20031;-77
2022/10/21 01:19:47;;;;;;;8.93;4.57;;;13.80;99.90;;;;;;4968353;28;20110;-77
2022/10/21 01:22:44;;;;;;;7.63;4.53;;;13.80;99.90;;;;;;4969001;28;20031;-77
2022/10/21 01:25:31;;;;;;;15.98;7.63;;;13.80;99.90;;;;;;4970301;28;20498;-77
2022/10/21 01:28:48;;;;;;;11.45;5.70;;;13.80;99.90;;;;;;4970371;28;20439;-77
2022/10/21 01:31:31;;;;;;;11.32;5.18;;;13.80;99.90;;;;;;4970822;28;20188;-76
2022/10/21 01:34:18;;;;;;;11.40;4.75;;;13.80;99.90;;;;;;4971694;28;20484;-77
2022/10/21 01:37:13;;;;;;;13.30;5.60;;;13.90;99.90;;;;;;4971438;28;20034;-77
2022/10/21 01:39:42;;;;;;;8.50;4.05;;;14.00;99.90;;;;;;4971050;28;20654;-77
2022/10/21 01:42:16;;;;;;;10.27;4.60;;;14.00;99.90;;;;;;4971835;28;20062;-76
2022/10/21 01:44:53;;;;;;;12.00;4.68;;;14.00;99.90;;;;;;4971282;28;20030;-77
2022/10/21 01:47:30;;;;;;;25.27;5.50;;;14.00;99.90;;;;;;4971020;28;20456;-76
2022/10/21 01:50:05;;;;;;;17.02;6.25;;;14.00;99.90;;;;;;4971366;28;20031;-77
2022/10/21 01:52:31;;;;;;;13.60;6.63;;;14.00;99.90;;;;;;4971299;28;20022;-77
2022/10/21 01:55:01;;;;;;;10.90;5.70;;;14.00;99.90;;;;;;4969873;28;20041;-77
2022/10/21 01:57:31;;;;;;;13.70;5.53;;;14.00;99.90;;;;;;4971187;28;20531;-78
2022/10/21 01:59:57;;;;;;;;;;;14.00;99.90;;;;;;4971632;28;20034;-76
2022/10/21 02:02:26;;;;;;;12.80;4.15;;;14.10;99.90;;;;;;4970826;28;19910;-77
2022/10/21 02:04:53;;;;;;;11.70;4.55;;;14.10;99.90;;;;;;4971392;28;20042;-77
2022/10/21 02:07:19;;;;;;;12.23;5.22;;;14.10;99.90;;;;;;4985743;28;20058;-77
2022/10/21 02:09:44;;;;;;;9.55;4.22;;;14.00;99.90;;;;;;4970982;28;20030;-76
2022/10/21 02:12:10;;;;;;;13.95;4.90;;;14.10;99.90;;;;;;4971301;28;20019;-76
2022/10/21 02:14:41;;;;;;;13.07;5.30;;;14.10;99.90;;;;;;4970964;28;20029;-77
2022/10/21 02:17:11;;;;;;;9.98;4.75;;;14.20;99.90;;;;;;4970915;28;20023;-77
2022/10/21 02:19:37;;;;;;;11.43;4.70;;;14.10;99.90;;;;;;4983414;28;20229;-77
2022/10/21 02:22:05;;;;;;;12.38;5.07;;;14.10;99.90;;;;;;4990191;28;20224;-78
2022/10/21 02:24:51;;;;;;;7.43;4.30;;;14.00;99.90;;;;;;4990250;28;20030;-78
2022/10/21 02:27:17;;;;;;;7.40;4.65;;;14.00;99.90;;;;;;4988600;28;20054;-78
2022/10/21 02:29:46;;;;;;;10.00;5.45;;;14.00;99.90;;;;;;4989194;28;20034;-78
2022/10/21 02:32:46;;;;;;;14.65;6.32;;;14.00;99.90;;;;;;4994108;28;20023;-76
2022/10/21 02:35:14;;;;;;;;;;;14.00;99.90;;;;;;4990665;28;20061;-77
2022/10/21 02:37:45;;;;;;;11.50;5.07;;;14.00;99.90;;;;;;4992951;28;20330;-78
2022/10/21 02:40:35;;;;;;;11.73;5.78;;;14.00;99.90;;;;;;4992742;28;20277;-77
2022/10/21 02:43:09;;;;;;;10.13;4.07;;;14.00;99.90;;;;;;4993925;28;20040;-77
2022/10/21 02:45:34;;;;;;;11.45;5.10;;;14.00;99.90;;;;;;4993880;28;20104;-77
2022/10/21 02:48:00;;;;;;;7.53;5.10;;;14.00;99.90;;;;;;4994036;28;20113;-77
2022/10/21 02:50:26;;;;;;;16.67;5.32;;;14.00;99.90;;;;;;4993888;28;20026;-77
2022/10/21 02:52:52;;;;;;;18.13;6.95;;;14.00;99.90;;;;;;4993647;28;20062;-76
2022/10/21 02:55:17;;;;;;;9.45;4.22;;;14.00;99.90;;;;;;4993830;28;20034;-75
2022/10/21 02:57:43;;;;;;;9.90;4.05;;;14.00;99.90;;;;;;4994245;28;20507;-77
2022/10/21 03:00:10;;;;;;;10.85;5.57;;;14.00;99.90;;;;;;4993204;28;20022;-77
2022/10/21 03:02:35;;;;;;;18.52;6.85;;;14.00;99.90;;;;;;4990940;28;20022;-77
2022/10/21 03:05:01;;;;;;;12.73;6.70;;;14.10;99.90;;;;;;4992512;28;20391;-77
2022/10/21 03:07:27;;;;;;;13.30;6.85;;;14.10;99.90;;;;;;4988749;28;20046;-77
2022/10/21 03:09:52;;;;;;;12.73;6.70;;;14.20;99.90;;;;;;4993506;28;20364;-77
2022/10/21 03:12:18;;;;;;;17.38;7.97;;;14.20;99.90;;;;;;4993409;28;20038;-77
2022/10/21 03:14:44;;;;;;;11.82;6.30;;;14.20;99.90;;;;;;4993636;28;20498;-76
2022/10/21 03:17:09;;;;;;;11.43;6.50;;;14.20;99.90;;;;;;4993461;28;20101;-76
2022/10/21 03:19:35;;;;;;;21.20;6.82;;;14.20;99.90;;;;;;4993131;28;20108;-77
2022/10/21 03:22:00;;;;;;;9.57;5.05;;;14.20;99.90;;;;;;4993358;28;20073;-76
2022/10/21 03:24:26;;;;;;;12.35;5.53;;;14.20;99.90;;;;;;4993118;28;20435;-76
2022/10/21 03:26:52;;;;;;;10.35;5.15;;;14.20;99.90;;;;;;4993093;28;20018;-76
2022/10/21 03:29:17;;;;;;;13.57;5.50;;;14.20;99.90;;;;;;4993100;28;20035;-76
2022/10/21 03:31:43;;;;;;;13.25;5.10;;;;;;;;;;4993033;28;20026;-77
2022/10/21 03:34:09;;;;;;;19.15;5.90;;;14.20;99.90;;;;;;4991868;28;20036;-77
2022/10/21 03:36:34;;;;;;;10.57;3.67;;;14.20;99.90;;;;;;4993214;28;20467;-76
2022/10/21 03:39:00;;;;;;;6.90;5.57;;;14.10;99.90;;;;;;4993200;28;20085;-75
2022/10/21 03:41:26;;;;;;;9.73;4.75;;;;;;;;;;4992871;28;20026;-77
2022/10/21 03:43:52;;;;;;;8.15;4.97;;;14.20;99.90;;;;;;4993198;28;20023;-76
2022/10/21 03:46:17;;;;;;;10.63;5.40;;;14.20;99.90;;;;;;4992910;28;20490;-77
2022/10/21 03:48:43;;;;;;;12.85;6.22;;;14.20;99.90;;;;;;4992867;28;20038;-77
2022/10/21 03:51:09;;;;;;;10.35;5.50;;;14.10;99.90;;;;;;4992957;28;20026;-77
2022/10/21 03:53:34;;;;;;;14.90;7.25;;;14.10;99.90;;;;;;4991580;28;20038;-76
2022/10/21 03:56:00;;;;;;;14.63;6.78;;;14.10;99.90;;;;;;4992963;28;20052;-77
2022/10/21 03:58:27;;;;;;;13.65;6.18;;;14.20;99.90;;;;;;4992780;28;20030;-76
2022/10/21 04:00:53;;;;;;;18.38;7.93;;;14.20;99.90;;;;;;4992506;28;20033;-77
2022/10/21 04:03:19;;;;;;;19.55;8.65;;;14.30;99.90;;;;;;4991239;28;20077;-76
2022/10/21 04:05:45;;;;;;;14.07;7.03;;;14.20;99.90;;;;;;4992015;28;20019;-78
2022/10/21 04:08:10;;;;;;;16.45;8.73;;;14.30;99.90;;;;;;4992508;28;20089;-77
2022/10/21 04:10:36;;;;;;;10.55;6.28;;;14.20;99.90;;;;;;4992465;28;20018;-77
2022/10/21 04:13:02;;;;;;;19.67;7.43;;;14.20;99.90;;;;;;4991312;28;20209;-76
2022/10/21 04:15:27;;;;;;;16.58;7.10;;;14.20;99.90;;;;;;4992329;28;20033;-77
2022/10/21 04:17:53;;;;;;;23.23;7.45;;;14.20;99.90;;;;;;4992784;28;20108;-76
2022/10/21 04:20:19;;;;;;;18.75;7.97;;;14.20;99.90;;;;;;4992117;28;20578;-77
2022/10/21 04:22:44;;;;;;;17.90;7.38;;;14.60;99.90;;;;;;4992096;28;20054;-77
2022/10/21 04:25:10;;;;;;;21.20;8.68;;;14.20;99.90;;;;;;4992253;28;20101;-77
2022/10/21 04:27:36;;;;;;;17.13;7.38;;;14.20;99.90;;;;;;4990945;28;20065;-77
2022/10/21 04:30:02;;;;;;;16.40;7.35;;;14.20;99.90;;;;;;4992294;28;20034;-77
2022/10/21 04:32:27;;;;;;;14.75;7.95;;;14.20;99.90;;;;;;4991898;28;20030;-77
2022/10/21 04:34:53;;;;;;;13.88;7.30;;;14.20;99.90;;;;;;4990007;28;20045;-77
2022/10/21 04:37:18;;;;;;;13.60;6.85;;;14.20;99.90;;;;;;4991123;28;20030;-77
2022/10/21 04:39:44;;;;;;;21.80;8.85;;;14.20;99.90;;;;;;4991450;28;20439;-77
2022/10/21 04:42:10;;;;;;;14.32;7.07;;;14.10;99.90;;;;;;4991618;28;20041;-77
2022/10/21 04:44:38;;;;;;;14.30;7.95;;;14.20;99.90;;;;;;4991697;28;20084;-77
2022/10/21 04:47:04;;;;;;;16.30;8.50;;;14.20;99.90;;;;;;4991548;28;20026;-77
2022/10/21 04:49:29;;;;;;;16.23;6.82;;;14.20;99.90;;;;;;4991502;28;20049;-77
2022/10/21 04:51:55;;;;;;;26.77;6.82;;;14.20;99.90;;;;;;4991706;28;20121;-76
2022/10/21 04:54:21;;;;;;;13.95;7.45;;;14.20;99.90;;;;;;4989936;28;20648;-76
2022/10/21 04:56:46;;;;;;;25.10;8.65;;;14.20;99.90;;;;;;4991891;28;20494;-76
2022/10/21 04:59:12;;;;;;;13.70;6.57;;;14.30;99.90;;;;;;4991814;28;20030;-77
2022/10/21 05:01:38;;;;;;;9.95;6.65;;;;;;;;;;4989324;28;20057;-77
2022/10/21 05:04:04;;;;;;;18.08;6.53;;;14.20;99.90;;;;;;4991496;28;20054;-77
2022/10/21 05:06:29;;;;;;;14.20;7.35;;;14.20;99.90;;;;;;4991569;28;20060;-77
2022/10/21 05:08:55;;;;;;;17.77;7.65;;;14.10;99.90;;;;;;4990100;28;20041;-77
2022/10/21 05:11:21;;;;;;;20.42;7.35;;;14.10;99.90;;;;;;4991531;28;20026;-77
2022/10/21 05:13:46;;;;;;;20.17;8.38;;;14.10;99.90;;;;;;4991291;28;20505;-77
2022/10/21 05:16:12;;;;;;;15.93;7.32;;;14.10;99.90;;;;;;4994636;28;20030;-77
2022/10/21 05:18:38;;;;;;;17.92;7.50;;;14.20;99.90;;;;;;4998801;28;20026;-78
2022/10/21 05:21:03;;;;;;;9.38;5.70;;;14.20;99.90;;;;;;4999166;28;20411;-77
2022/10/21 05:23:29;;;;;;;11.75;7.43;;;14.20;99.90;;;;;;5000250;28;20030;-77
2022/10/21 05:25:55;;;;;;;13.77;6.97;;;14.20;99.90;;;;;;4999690;28;20053;-77
2022/10/21 05:28:21;;;;;;;19.42;6.65;;;14.20;99.90;;;;;;4996065;28;20117;-76
2022/10/21 05:30:47;;;;;;;17.63;6.90;;;14.20;99.90;;;;;;4992296;28;20034;-77
2022/10/21 05:33:13;;;;;;;16.98;8.43;;;14.20;99.90;;;;;;4991836;28;20062;-77
2022/10/21 05:35:38;;;;;;;16.33;6.90;;;14.20;99.90;;;;;;4991237;28;20015;-76
2022/10/21 05:38:04;;;;;;;11.98;7.70;;;14.30;99.90;;;;;;4992487;28;20069;-77
2022/10/21 05:40:31;;;;;;;12.77;5.90;;;14.20;99.90;;;;;;4987575;28;20482;-77
2022/10/21 05:42:57;;;;;;;12.82;5.88;;;14.30;99.90;;;;;;4971850;28;20078;-77
2022/10/21 05:45:22;;;;;;;10.18;6.35;;;14.30;99.90;;;;;;4971549;28;20031;-77
2022/10/21 05:47:48;;;;;;;12.35;5.95;;;14.30;99.90;;;;;;4971660;28;20071;-77
2022/10/21 05:50:14;;;;;;;11.20;5.25;;;14.20;99.90;;;;;;4971781;28;20097;-77
2022/10/21 05:52:40;;;;;;;12.90;5.82;;;14.20;99.90;;;;;;4971639;28;20074;-77
2022/10/21 05:55:07;;;;;;;19.55;6.38;;;14.20;99.90;;;;;;4968807;28;20026;-77
2022/10/21 05:57:34;;;;;;;17.92;6.63;;;14.30;99.90;;;;;;4976870;28;20031;-77
2022/10/21 06:00:00;;;;;;;9.13;5.97;;;14.30;99.90;;;;;;4980820;28;20046;-77
2022/10/21 06:02:25;;;;;;;11.75;6.53;;;14.30;99.90;;;;;;4983123;28;20034;-77
2022/10/21 06:04:51;;;;;;;11.85;5.47;;;14.20;99.90;;;;;;4985456;28;20026;-77
2022/10/21 06:07:17;;;;;;;10.48;6.30;;;14.20;99.90;;;;;;4988248;28;20037;-77
2022/10/21 06:09:42;;;;;;;15.20;4.63;;;14.20;99.90;;;;;;4986217;28;20037;-76
2022/10/21 06:12:08;;;;;;;9.07;5.45;;;14.30;99.90;;;;;;4987889;28;20766;-78
2022/10/21 06:14:36;;;;;;;8.80;3.88;;;14.20;99.90;;;;;;4972356;28;20034;-77
2022/10/21 06:17:03;;;;;;;8.10;3.97;;;14.30;99.90;;;;;;4966650;28;20062;-77
2022/10/21 06:19:29;;;;;;;7.03;4.82;;;14.20;99.90;;;;;;4967821;28;20094;-76
2022/10/21 06:21:56;;;;;;;8.02;3.90;;;14.20;99.90;;;;;;4968445;28;20511;-77
2022/10/21 06:24:23;;;;;;;9.25;4.15;;;14.20;99.90;;;;;;4968550;28;20109;-76
2022/10/21 06:26:49;;;;;;;6.38;4.18;;;14.20;99.90;;;;;;4966878;28;20031;-77
2022/10/21 06:29:16;;;;;;;7.47;3.95;;;14.20;99.90;;;;;;4967965;28;20554;-78
2022/10/21 06:31:42;;;;;;;5.15;3.47;;;14.10;99.90;;;;;;4967271;28;20029;-77
2022/10/21 06:34:10;;;;;;;8.13;5.00;;;14.20;99.90;;;;;;4969451;28;20399;-78
2022/10/21 06:36:37;;;;;;;10.02;4.65;;;14.20;99.90;;;;;;4967998;28;20058;-77
2022/10/21 06:39:04;;;;;;;6.15;3.47;;;14.10;99.90;;;;;;4968597;28;20031;-76
2022/10/21 06:41:30;;;;;;;9.75;4.90;;;14.20;99.90;;;;;;4968266;28;20434;-76
2022/10/21 06:43:55;;;;;;;7.80;4.10;;;14.30;99.90;;;;;;4968273;28;20120;-78
2022/10/21 06:46:21;;;;;;;10.50;4.07;;;14.30;99.90;;;;;;4968968;28;20023;-76
2022/10/21 06:48:47;;;;;;;9.10;4.53;;;14.30;99.90;;;;;;4997508;28;20043;-78
2022/10/21 06:51:23;;;;;;;20.15;4.60;;;14.30;99.90;;;;;;4967212;28;20023;-77
2022/10/21 06:53:55;;;;;;;10.45;3.47;;;14.40;99.90;;;;;;4965096;28;20058;-75
2022/10/21 06:56:21;;;;;;;9.52;3.03;;;14.30;99.90;;;;;;4965956;28;20638;-77
2022/10/21 06:58:48;;;;;;;5.60;2.33;;;14.40;99.90;;;;;;4966210;28;20110;-77
2022/10/21 07:01:26;;;;;;;8.63;2.70;;;14.50;99.90;;;;;;4966381;28;20015;-74
2022/10/21 07:03:52;;;;;;;7.32;4.65;;;14.40;99.90;;;;;;4966379;28;20514;-77
2022/10/21 07:06:18;;;;;;;4.45;2.45;;;14.50;99.90;;;;;;4981017;28;20031;-77
2022/10/21 07:08:43;;;;;;;3.25;2.55;;;14.50;99.90;;;;;;4986018;28;20034;-77
2022/10/21 07:11:11;;;;;;;4.25;3.08;;;14.50;99.90;;;;;;4984030;28;20554;-78
2022/10/21 07:13:37;;;;;;;5.85;2.38;;;14.60;99.90;;;;;;4986731;28;20034;-77
2022/10/21 07:16:10;;;;;;;5.63;3.53;;;14.60;99.90;;;;;;4987698;28;20558;-78
2022/10/21 07:18:36;;;;;;;7.47;1.90;;;14.70;99.90;;;;;;4987321;28;20445;-77
2022/10/21 07:21:07;;;;;;;15.55;3.60;;;14.70;99.90;;;;;;4988736;28;20053;-77
2022/10/21 07:23:33;;;;;;;5.47;1.70;;;14.70;99.90;;;;;;4988354;28;20489;-76
2022/10/21 07:26:06;;;;;;;2.17;1.85;;;14.80;99.90;;;;;;4989429;28;20058;-76
2022/10/21 07:28:32;;;;;;;2.05;1.05;;;14.90;99.90;;;;;;4990525;28;20681;-76
2022/10/21 07:30:58;;;;;;;5.25;1.08;;;;;;;;;;4990367;28;20091;-76
2022/10/21 07:33:24;;;;;;;0.88;0.88;;;14.90;99.90;;;;;;4990277;28;20109;-77
2022/10/21 07:35:50;;;;;;;2.45;1.13;;;14.90;99.90;;;;;;4988485;28;20098;-76
2022/10/21 07:38:15;;;;;;;1.00;0.90;;;14.90;99.90;;;;;;4984410;28;20030;-77
2022/10/21 07:40:42;;;;;;;0.47;0.47;;;14.90;99.90;;;;;;4969545;28;20026;-77
2022/10/21 07:43:10;;;;;;;0.30;0.30;;;14.80;99.90;;;;;;4985083;28;20404;-77
2022/10/21 07:45:41;;;;;;;0.73;0.45;;;14.80;99.90;;;;;;4970463;28;20073;-77
2022/10/21 07:48:09;;;;;;;1.85;0.50;;;14.70;99.90;;;;;;4969123;28;20622;-77
2022/10/21 07:50:35;;;;;;;4.47;0.90;;;14.70;99.90;;;;;;4970236;28;20026;-77
2022/10/21 07:53:01;;;;;;;1.65;1.05;;;14.60;99.90;;;;;;4970379;28;20042;-77
2022/10/21 07:55:28;;;;;;;0.38;0.32;;;14.60;99.90;;;;;;4970483;28;20031;-76
2022/10/21 07:57:54;;;;;;;0.15;0.15;;;14.60;99.90;;;;;;4985415;28;20515;-76
2022/10/21 08:00:19;;;;;;;1.75;0.55;;;14.60;99.90;;;;;;4970606;28;20265;-76
2022/10/21 08:02:45;;;;;;;1.90;0.55;;;14.50;99.90;;;;;;4970520;28;20034;-76
2022/10/21 08:05:11;;;;;;;3.75;0.47;;;14.50;99.90;;;;;;4970621;28;20034;-77
2022/10/21 08:07:36;;;;;;;0.10;0.10;;;14.50;99.90;;;;;;4970473;28;20042;-76
2022/10/21 08:10:04;;;;;;;0.38;0.38;;;14.50;99.90;;;;;;4970252;28;20085;-77
2022/10/21 08:12:29;;;;;;;0.47;0.47;;;14.60;99.90;;;;;;4970216;28;20405;-76
2022/10/21 08:14:55;;;;;;;2.75;0.95;;;14.50;99.90;;;;;;4969045;28;20065;-76
2022/10/21 08:17:20;;;;;;;0.28;0.28;;;14.50;99.90;;;;;;4969062;28;20026;-76
2022/10/21 08:19:46;;;;;;;1.90;0.30;;;14.50;99.90;;;;;;4985221;28;20126;-76
2022/10/21 08:22:12;;;;;;;0.90;0.47;;;14.50;99.90;;;;;;4970898;28;20035;-77
2022/10/21 08:24:38;;;;;;;1.98;0.40;;;;;;;;;;4986528;28;20042;-78
2022/10/21 08:27:04;;;;;;;0.68;0.63;;;14.60;99.90;;;;;;4970794;28;20027;-78
2022/10/21 08:29:30;;;;;;;0.50;0.50;;;14.60;99.90;;;;;;4972885;28;20051;-77
2022/10/21 08:31:56;;;;;;;2.00;0.43;;;14.60;99.90;;;;;;4985121;28;20392;-77
2022/10/21 08:34:22;;;;;;;1.75;0.52;;;14.60;99.90;;;;;;4971971;28;20121;-77
2022/10/21 08:36:47;;;;;;;2.80;0.43;;;14.60;99.90;;;;;;4971119;28;20029;-77
2022/10/21 08:39:13;;;;;;;0.43;0.43;;;14.60;99.90;;;;;;4969209;28;20023;-77
2022/10/21 08:41:42;;;;;;;0.30;0.20;;;;;;;;;;4970008;28;20022;-77
2022/10/21 08:44:49;;;;;;;0.45;0.38;;;14.60;99.90;;;;;;4968167;28;20022;-77
2022/10/21 08:47:44;;;;;;;0.20;0.17;;;14.60;99.90;;;;;;4979464;28;20133;-77
2022/10/21 08:50:21;;;;;;;0.32;0.32;;;14.60;99.90;;;;;;4969650;28;20125;-77
2022/10/21 08:52:57;;;;;;;0.28;0.20;;;14.60;99.90;;;;;;4967881;28;20042;-76
2022/10/21 08:55:39;;;;;;;0.40;0.15;;;14.60;99.90;;;;;;4969542;28;20023;-77
2022/10/21 08:58:09;;;;;;;2.80;0.63;;;14.70;99.90;;;;;;4968208;28;20046;-77
2022/10/21 09:01:12;;;;;;;0.10;0.10;;;14.60;99.90;;;;;;4969103;28;20050;-76
2022/10/21 09:04:03;;;;;;;0.15;0.15;;;14.60;99.90;;;;;;4968132;28;20031;-76
2022/10/21 09:06:41;;;;;;;0.77;0.40;;;14.60;99.90;;;;;;4970563;28;20023;-77
2022/10/21 09:09:13;;;;;;;0.50;0.30;;;14.60;99.90;;;;;;4970387;28;20248;-77
2022/10/21 09:12:03;;;;;;;2.45;0.77;;;14.60;99.90;;;;;;4969415;28;20029;-78
2022/10/21 09:14:38;;;;;;;0.30;0.30;;;14.80;99.90;;;;;;4969959;28;20467;-78
2022/10/21 09:17:22;;;;;;;1.10;0.30;;;14.80;99.90;;;;;;4969146;28;20058;-76
2022/10/21 09:19:52;;;;;;;0.30;0.30;;;14.90;99.90;;;;;;4969109;28;20055;-77
2022/10/21 09:22:25;;;;;;;4.50;0.17;;;;;;;;;;4968783;28;20035;-77
2022/10/21 09:24:57;;;;;;;0.40;0.40;;;15.00;99.90;;;;;;4967644;28;20030;-76
2022/10/21 09:27:23;;;;;;;11.30;0.65;;;15.00;99.90;;;;;;4969198;28;20030;-76
2022/10/21 09:29:55;;;;;;;0.80;0.80;;;15.00;99.90;;;;;;4968338;28;20037;-77
2022/10/21 09:32:31;;;;;;;1.35;0.20;;;15.00;99.90;;;;;;4969904;28;20033;-77
2022/10/21 09:35:27;;;;;;;1.67;0.55;;;15.00;99.90;;;;;;4970288;28;20572;-75
2022/10/21 09:37:58;;;;;;;3.13;0.85;;;15.10;99.90;;;;;;4970806;28;20053;-75
2022/10/21 09:40:27;;;;;;;0.22;0.22;;;13.20;99.90;;;;;;4972344;28;20022;-76
2022/10/21 09:42:57;;;;;;;1.75;1.42;;;15.30;99.90;;;;;;4992028;28;20030;-77
2022/10/21 09:45:29;;;;;;;1.55;0.50;;;15.40;99.90;;;;;;4989868;28;20040;-76
2022/10/21 09:47:58;;;;;;;4.18;0.43;;;15.40;99.90;;;;;;4989364;28;20029;-76
2022/10/21 09:50:24;;;;;;;3.25;1.02;;;15.50;99.90;;;;;;4989535;28;20168;-77
2022/10/21 09:53:48;;;;;;;0.32;0.32;;;15.50;99.90;;;;;;5005518;28;20094;-77
2022/10/21 09:56:20;;;;;;;1.85;0.50;;;15.60;99.90;;;;;;4928211;29;20036;-77
2022/10/21 09:59:05;;;;;;;0.28;0.28;;;15.70;99.90;;;;;;4928448;29;20488;-77
2022/10/21 10:01:31;;;;;;;1.98;0.68;;;15.70;99.90;;;;;;4959029;28;20084;-77
2022/10/21 10:03:57;;;;;;;0.32;0.20;;;15.70;99.90;;;;;;4987977;28;20423;-77
2022/10/21 10:06:40;;;;;;;2.75;1.70;;;15.80;99.90;;;;;;4988977;28;20554;-77
2022/10/21 10:09:29;;;;;;;2.67;1.73;;;15.90;99.90;;;;;;4989060;28;20310;-76
2022/10/21 10:12:02;;;;;;;1.77;0.65;;;16.00;99.90;;;;;;4989245;28;20034;-76
2022/10/21 10:14:37;;;;;;;1.75;1.35;;;16.10;99.90;;;;;;4990113;28;20045;-76
2022/10/21 10:17:20;;;;;;;0.68;0.68;;;16.20;99.90;;;;;;4990379;28;20030;-76
2022/10/21 10:20:21;;;;;;;0.73;0.55;;;16.20;99.90;;;;;;4990300;28;20042;-76
2022/10/21 10:22:57;;;;;;;0.55;0.55;;;16.10;99.90;;;;;;4928912;29;20035;-77
2022/10/21 10:25:25;;;;;;;1.55;0.95;;;16.20;99.90;;;;;;4982131;28;20458;-76
2022/10/21 10:28:01;;;;;;;1.15;0.65;;;16.30;99.90;;;;;;4989717;28;20266;-76
2022/10/21 10:30:46;;;;;;;3.30;0.93;;;16.40;99.90;;;;;;4989664;28;20054;-78
2022/10/21 10:33:18;;;;;;;3.85;1.23;;;16.60;99.90;;;;;;4989763;28;20018;-77
2022/10/21 10:35:54;;;;;;;2.80;0.80;;;16.80;99.90;;;;;;4989680;28;20029;-76
2022/10/21 10:38:31;;;;;;;0.95;0.70;;;16.90;99.90;;;;;;4989866;28;20109;-76
2022/10/21 10:41:14;;;;;;;2.38;0.85;;;17.30;99.90;;;;;;5004989;28;20073;-78
2022/10/21 10:43:52;;;;;;;3.78;1.40;;;16.60;99.90;;;;;;4990154;28;20026;-76
2022/10/21 10:46:23;;;;;;;1.00;1.00;;;17.80;99.90;;;;;;4989677;28;20467;-75
2022/10/21 10:48:51;;;;;;;2.30;0.93;;;17.70;99.90;;;;;;4989631;28;20117;-78
2022/10/21 10:51:29;;;;;;;1.75;0.82;;;17.50;99.90;;;;;;4991002;28;20026;-79
2022/10/21 10:54:05;;;;;;;0.38;0.13;;;17.30;99.90;;;;;;4993909;28;20026;-78
2022/10/21 10:56:49;;;;;;;0.68;0.65;;;17.20;99.90;;;;;;4993322;28;20041;-76
2022/10/21 10:59:44;;;;;;;7.32;0.60;;;17.20;99.90;;;;;;4991963;28;20129;-76
2022/10/21 11:02:10;;;;;;;8.68;0.60;;;17.20;99.90;;;;;;4993116;28;20049;-76
2022/10/21 11:04:40;;;;;;;0.10;0.10;;;17.20;99.90;;;;;;4993391;28;20335;-76
2022/10/21 11:07:31;;;;;;;2.75;0.40;;;17.40;99.90;;;;;;4993161;28;20419;-77
2022/10/21 11:10:20;;;;;;;1.23;0.50;;;17.40;99.90;;;;;;4993113;28;20069;-77
2022/10/21 11:12:46;;;;;;;0.30;0.30;;;17.40;99.90;;;;;;4962157;28;20095;-78
2022/10/21 11:15:14;;;;;;;0.35;0.20;;;17.60;99.90;;;;;;4992894;28;20062;-76
2022/10/21 11:17:46;;;;;;;0.63;0.60;;;17.70;99.90;;;;;;4992963;28;20037;-77
2022/10/21 11:20:41;;;;;;;0.60;0.60;;;17.90;99.90;;;;;;4992936;28;20050;-76
2022/10/21 11:23:30;;;;;;;1.17;0.73;;;18.20;99.90;;;;;;5007945;28;20510;-76
2022/10/21 11:26:10;;;;;;;3.10;0.50;;;18.30;99.90;;;;;;4953383;28;20480;-79
2022/10/21 11:28:46;;;;;;;4.03;0.68;;;18.20;99.90;;;;;;4973434;28;20566;-77
2022/10/21 11:31:36;;;;;;;3.05;0.57;;;18.00;99.90;;;;;;4971982;28;20031;-76
2022/10/21 11:34:36;;;;;;;15.98;2.67;;;17.90;99.90;;;;;;4973351;28;20058;-76
2022/10/21 11:37:07;;;;;;;0.30;0.20;;;17.90;99.90;;;;;;4963905;28;20035;-76
2022/10/21 11:39:48;;;;;;;2.55;0.50;;;17.80;99.90;;;;;;4988086;28;20109;-75
2022/10/21 11:42:30;;;;;;;0.25;0.25;;;17.70;99.90;;;;;;4973283;28;20523;-77
2022/10/21 11:44:58;;;;;;;0.32;0.30;;;17.60;99.90;;;;;;4974237;28;20118;-76
2022/10/21 11:48:10;;;;;;;0.45;0.40;;;17.30;99.90;;;;;;4975453;28;20398;-78
2022/10/21 11:50:59;;;;;;;1.90;0.38;;;17.00;99.90;;;;;;4973369;28;20484;-79
2022/10/21 11:53:57;;;;;;;1.45;0.70;;;16.90;99.90;;;;;;4973276;28;20477;-76
2022/10/21 11:56:44;;;;;;;0.65;0.60;;;17.00;99.90;;;;;;4971723;28;20031;-77
2022/10/21 11:59:31;;;;;;;0.47;0.45;;;17.10;99.90;;;;;;4971628;28;20027;-78
2022/10/21 12:02:24;;;;;;;0.47;0.47;;;17.10;99.90;;;;;;4971676;28;20090;-77
2022/10/21 12:05:07;;;;;;;0.68;0.60;;;17.00;99.90;;;;;;4971500;28;20365;-79
2022/10/21 12:07:45;;;;;;;2.75;0.90;;;16.80;99.90;;;;;;4972723;28;20018;-76
2022/10/21 12:10:10;;;;;;;0.95;0.70;;;16.70;99.90;;;;;;4972799;28;20049;-77
2022/10/21 12:12:45;;;;;;;0.70;0.70;;;16.60;99.90;;;;;;4972527;28;20495;-78
2022/10/21 12:15:21;;;;;;;2.20;0.77;;;16.40;99.90;;;;;;4973015;28;20049;-76
2022/10/21 12:17:48;;;;;;;0.85;0.77;;;16.20;99.90;;;;;;4974921;28;20319;-77
2022/10/21 12:20:19;;;;;;;0.80;0.80;;;15.90;99.90;;;;;;4973556;28;20206;-76
2022/10/21 12:22:45;;;;;;;0.55;0.55;;;15.80;99.90;;;;;;4974226;28;20041;-77
2022/10/21 12:25:11;;;;;;;1.35;0.98;;;15.70;99.90;;;;;;4972809;28;20391;-76
2022/10/21 12:27:40;;;;;;;0.90;0.88;;;15.80;99.90;;;;;;4973187;28;20027;-77
2022/10/21 12:30:09;;;;;;;4.07;0.80;;;15.80;99.90;;;;;;4972743;28;20066;-76
2022/10/21 12:32:34;;;;;;;;;;;15.80;99.90;;;;;;4973601;28;20384;-76
2022/10/21 12:35:01;;;;;;;1.83;1.30;;;15.70;99.90;;;;;;4973218;28;19906;-76
2022/10/21 12:37:49;;;;;;;6.13;1.73;;;15.70;99.90;;;;;;4973647;28;20022;-77
2022/10/21 12:40:28;;;;;;;1.20;0.80;;;15.70;99.90;;;;;;4974091;28;20030;-77
2022/10/21 12:43:22;;;;;;;4.72;1.25;;;15.60;99.90;;;;;;4972854;28;20027;-76
2022/10/21 12:46:09;;;;;;;1.27;1.17;;;15.60;99.90;;;;;;4973447;28;20034;-78
2022/10/21 12:48:43;;;;;;;5.75;1.42;;;15.60;99.90;;;;;;4971118;28;20042;-76
2022/10/21 12:51:23;;;;;;;2.08;1.67;;;15.70;99.90;;;;;;4972619;28;20476;-80
2022/10/21 12:54:00;;;;;;;5.72;1.70;;;15.80;99.90;;;;;;4973367;28;20019;-77
2022/10/21 12:56:35;;;;;;;15.27;2.42;;;;;;;;;;4972297;28;20031;-78
2022/10/21 12:59:05;;;;;;;6.95;1.75;;;16.00;99.90;;;;;;4977355;28;20026;-76
2022/10/21 13:01:39;;;;;;;8.70;0.90;;;16.10;99.90;;;;;;4991152;28;20194;-77
2022/10/21 13:04:45;;;;;;;2.10;1.10;;;16.10;99.90;;;;;;4992839;28;20030;-77
2022/10/21 13:07:13;;;;;;;1.20;0.95;;;16.10;99.90;;;;;;4993311;28;20039;-78
2022/10/21 13:09:40;;;;;;;2.20;1.08;;;16.00;99.90;;;;;;4993171;28;20317;-75